Time;durP1;ratioP1;P1;durP2;ratioP2;P2;SDS_P1;SDS_P2;PMS_P1;PMS_P2;Temp;Humidity;BMP_temperature;BMP_pressure;BME280_temperature;BME280_humidity;BME280_pressure;Samples;Min_cycle;Max_cycle;Signal;HPM_P1;HPM_P2
2021/04/08 00:01:31;;;;;;;6.55;1.90;;;1.50;73.40;;;;;;4990637;28;20081;-79
2021/04/08 00:03:57;;;;;;;5.30;1.90;;;1.50;72.70;;;;;;4991559;28;20052;-79
2021/04/08 00:06:22;;;;;;;7.60;3.40;;;1.60;73.00;;;;;;4987786;28;20036;-79
2021/04/08 00:08:48;;;;;;;7.25;2.47;;;1.50;74.30;;;;;;4971943;28;20038;-79
2021/04/08 00:11:14;;;;;;;5.63;2.20;;;1.50;75.90;;;;;;4971966;28;20043;-79
2021/04/08 00:13:39;;;;;;;6.57;1.70;;;1.40;76.00;;;;;;4990578;28;20117;-79
2021/04/08 00:16:05;;;;;;;7.68;2.10;;;1.30;76.10;;;;;;4990499;28;20081;-78
2021/04/08 00:18:32;;;;;;;8.10;1.25;;;1.30;76.90;;;;;;4990428;28;20184;-79
2021/04/08 00:20:58;;;;;;;12.48;1.10;;;1.30;76.40;;;;;;4990712;28;20038;-79
2021/04/08 00:23:23;;;;;;;5.20;1.40;;;1.30;74.50;;;;;;4990605;28;20026;-79
2021/04/08 00:25:49;;;;;;;5.70;1.70;;;1.40;72.00;;;;;;4990399;28;20100;-79
2021/04/08 00:28:15;;;;;;;4.38;1.45;;;1.40;72.00;;;;;;4989155;28;20050;-79
2021/04/08 00:30:43;;;;;;;6.05;1.50;;;1.50;72.30;;;;;;4975959;28;20492;-79
2021/04/08 00:33:16;;;;;;;6.53;1.58;;;1.50;72.50;;;;;;4986150;28;20030;-80
2021/04/08 00:35:43;;;;;;;8.02;2.30;;;1.60;74.10;;;;;;4989851;28;20046;-79
2021/04/08 00:38:10;;;;;;;9.02;2.35;;;1.60;74.40;;;;;;4990768;28;20034;-79
2021/04/08 00:40:36;;;;;;;6.53;2.10;;;1.50;74.30;;;;;;4989812;28;20117;-79
2021/04/08 00:43:03;;;;;;;6.28;1.50;;;1.50;74.50;;;;;;4985958;28;20026;-79
2021/04/08 00:45:30;;;;;;;6.20;2.05;;;1.50;75.00;;;;;;4990250;28;20038;-78
2021/04/08 00:47:56;;;;;;;8.27;2.95;;;1.50;76.10;;;;;;4989841;28;20029;-79
2021/04/08 00:50:22;;;;;;;7.32;2.05;;;1.40;76.30;;;;;;4990116;28;20046;-79
2021/04/08 00:52:57;;;;;;;6.40;1.75;;;1.20;77.30;;;;;;4978585;28;20031;-79
2021/04/08 00:55:27;;;;;;;7.13;2.13;;;1.20;77.10;;;;;;4990323;28;20038;-79
2021/04/08 00:57:55;;;;;;;5.28;1.20;;;1.30;76.20;;;;;;4978347;28;20030;-79
2021/04/08 01:00:22;;;;;;;7.32;1.52;;;1.20;76.50;;;;;;4990062;28;20502;-79
2021/04/08 01:02:48;;;;;;;8.93;1.45;;;1.30;76.20;;;;;;4980984;28;20465;-79
2021/04/08 01:05:14;;;;;;;9.23;2.60;;;1.30;76.40;;;;;;4989621;28;20080;-79
2021/04/08 01:07:39;;;;;;;8.05;1.73;;;1.30;76.70;;;;;;4989337;28;20026;-78
2021/04/08 01:10:09;;;;;;;10.98;3.13;;;1.30;76.50;;;;;;4989845;28;20188;-79
2021/04/08 01:12:35;;;;;;;21.42;7.03;;;1.30;76.00;;;;;;4989406;28;20476;-79
2021/04/08 01:15:03;;;;;;;9.68;3.00;;;1.30;76.50;;;;;;4989891;28;20180;-79
2021/04/08 01:17:47;;;;;;;7.25;1.95;;;1.20;76.50;;;;;;4989459;28;20048;-79
2021/04/08 01:20:43;;;;;;;5.57;1.05;;;1.20;76.90;;;;;;4990188;28;20045;-83
2021/04/08 01:23:32;;;;;;;4.32;1.13;;;1.10;76.50;;;;;;4989633;28;20054;-79
2021/04/08 01:26:16;;;;;;;4.18;0.90;;;1.10;77.10;;;;;;4989615;28;20057;-79
2021/04/08 01:28:57;;;;;;;6.07;1.08;;;1.00;76.20;;;;;;4983266;28;20611;-79
2021/04/08 01:31:24;;;;;;;3.13;0.70;;;1.10;76.00;;;;;;4989904;28;20029;-79
2021/04/08 01:33:54;;;;;;;4.25;1.15;;;1.00;76.30;;;;;;4989013;28;20034;-79
2021/04/08 01:36:26;;;;;;;10.52;2.92;;;1.00;77.90;;;;;;4989323;28;20034;-79
2021/04/08 01:38:52;;;;;;;;;;;1.00;78.80;;;;;;4989812;28;20039;-79
2021/04/08 01:41:19;;;;;;;7.80;2.45;;;1.00;78.50;;;;;;4993310;28;20634;-79
2021/04/08 01:43:46;;;;;;;5.18;1.63;;;1.00;78.10;;;;;;4993307;28;20479;-79
2021/04/08 01:46:14;;;;;;;6.57;1.38;;;1.00;78.20;;;;;;4993268;28;20038;-79
2021/04/08 01:48:43;;;;;;;7.35;1.30;;;1.00;78.00;;;;;;4993119;28;20026;-79
2021/04/08 01:51:11;;;;;;;3.40;0.90;;;1.00;78.00;;;;;;4993472;28;20045;-79
2021/04/08 01:53:57;;;;;;;4.15;0.80;;;0.90;78.90;;;;;;4992863;28;20038;-79
2021/04/08 01:56:26;;;;;;;3.92;0.80;;;0.90;78.70;;;;;;4975480;28;20042;-79
2021/04/08 01:58:53;;;;;;;3.85;0.77;;;0.90;78.90;;;;;;4981963;28;20138;-79
2021/04/08 02:01:20;;;;;;;5.85;1.50;;;0.80;79.00;;;;;;4987063;28;20027;-79
2021/04/08 02:03:47;;;;;;;8.60;2.08;;;0.80;78.20;;;;;;4992682;28;20025;-78
2021/04/08 02:06:14;;;;;;;4.65;1.35;;;0.80;78.40;;;;;;4992526;28;20034;-79
2021/04/08 02:08:43;;;;;;;5.25;1.20;;;0.70;78.70;;;;;;4992309;28;20026;-79
2021/04/08 02:11:11;;;;;;;7.85;1.50;;;0.80;79.30;;;;;;4992362;28;20045;-78
2021/04/08 02:13:38;;;;;;;3.00;0.80;;;0.70;79.30;;;;;;4987844;28;20031;-79
2021/04/08 02:16:07;;;;;;;4.13;0.90;;;0.70;79.30;;;;;;4980260;28;20073;-79
2021/04/08 02:18:34;;;;;;;5.78;1.15;;;0.80;79.70;;;;;;4992469;28;20018;-79
2021/04/08 02:21:01;;;;;;;2.85;0.73;;;0.80;79.40;;;;;;4992754;28;20407;-80
2021/04/08 02:23:30;;;;;;;2.75;0.85;;;0.70;80.00;;;;;;4991944;28;20108;-79
2021/04/08 02:25:56;;;;;;;6.38;1.10;;;0.70;79.40;;;;;;4983374;28;20034;-79
2021/04/08 02:28:26;;;;;;;3.53;0.90;;;0.70;79.40;;;;;;4992597;28;20128;-79
2021/04/08 02:30:53;;;;;;;4.75;1.00;;;0.70;79.70;;;;;;4990868;28;20049;-79
2021/04/08 02:33:26;;;;;;;5.95;1.40;;;0.70;79.60;;;;;;4992720;28;20077;-78
2021/04/08 02:35:54;;;;;;;4.85;1.20;;;0.60;79.40;;;;;;4988410;28;20042;-78
2021/04/08 02:38:22;;;;;;;5.53;1.33;;;0.60;79.70;;;;;;4973555;28;20169;-79
2021/04/08 02:40:48;;;;;;;5.07;1.10;;;0.50;81.10;;;;;;4978784;28;20464;-78
2021/04/08 02:43:14;;;;;;;4.40;1.10;;;0.50;81.20;;;;;;4992725;28;20030;-79
2021/04/08 02:45:40;;;;;;;4.75;1.17;;;0.50;81.30;;;;;;4992734;28;20046;-79
2021/04/08 02:48:12;;;;;;;6.88;2.08;;;0.50;81.90;;;;;;4988460;28;20033;-79
2021/04/08 02:50:40;;;;;;;10.57;2.78;;;0.50;81.90;;;;;;4974816;28;20399;-79
2021/04/08 02:53:14;;;;;;;5.63;1.75;;;0.50;82.10;;;;;;4987571;28;20490;-79
2021/04/08 02:55:49;;;;;;;4.82;1.38;;;0.50;82.60;;;;;;4992576;28;20622;-79
2021/04/08 02:58:17;;;;;;;5.00;1.00;;;0.50;82.30;;;;;;5004546;28;20033;-78
2021/04/08 03:00:55;;;;;;;4.50;0.85;;;0.50;82.10;;;;;;4992467;28;20041;-78
2021/04/08 03:03:30;;;;;;;5.00;0.80;;;0.40;81.70;;;;;;4991718;28;20037;-79
2021/04/08 03:06:00;;;;;;;3.35;0.60;;;0.50;81.30;;;;;;4972652;28;20038;-79
2021/04/08 03:08:28;;;;;;;3.60;0.82;;;0.50;81.00;;;;;;4987663;28;20053;-79
2021/04/08 03:10:55;;;;;;;6.88;1.10;;;0.50;80.90;;;;;;4992085;28;20030;-79
2021/04/08 03:13:22;;;;;;;8.25;2.17;;;0.40;81.20;;;;;;4991492;28;20035;-79
2021/04/08 03:15:48;;;;;;;6.45;1.80;;;0.40;81.30;;;;;;4974202;28;20034;-79
2021/04/08 03:18:18;;;;;;;6.57;1.60;;;0.40;81.10;;;;;;4991322;28;20027;-79
2021/04/08 03:20:50;;;;;;;10.18;2.00;;;0.40;81.20;;;;;;4992027;28;20030;-79
2021/04/08 03:23:18;;;;;;;6.95;2.05;;;0.40;81.20;;;;;;4973679;28;20026;-79
2021/04/08 03:25:47;;;;;;;6.45;2.08;;;0.40;81.80;;;;;;4991947;28;20117;-79
2021/04/08 03:28:14;;;;;;;5.25;1.75;;;0.30;81.00;;;;;;4990881;28;20046;-79
2021/04/08 03:30:41;;;;;;;7.68;1.63;;;0.30;81.70;;;;;;4991567;28;20054;-79
2021/04/08 03:33:08;;;;;;;6.20;1.80;;;0.30;81.80;;;;;;4987994;28;20054;-79
2021/04/08 03:35:35;;;;;;;10.77;1.20;;;0.30;82.10;;;;;;4982196;28;20054;-79
2021/04/08 03:38:01;;;;;;;7.20;1.40;;;0.20;82.30;;;;;;4972104;28;20069;-79
2021/04/08 03:40:28;;;;;;;5.10;1.33;;;0.10;83.20;;;;;;4991465;28;20089;-79
2021/04/08 03:42:55;;;;;;;6.40;1.42;;;0.20;82.80;;;;;;4991139;28;20022;-79
2021/04/08 03:45:21;;;;;;;5.47;1.02;;;0.20;82.30;;;;;;4991213;28;20034;-79
2021/04/08 03:47:48;;;;;;;7.55;1.38;;;0.20;82.30;;;;;;4990842;28;20027;-79
2021/04/08 03:50:15;;;;;;;4.90;1.33;;;0.10;82.80;;;;;;4991213;28;20519;-79
2021/04/08 03:52:43;;;;;;;5.78;1.55;;;0.10;82.70;;;;;;4968763;28;20034;-80
2021/04/08 03:55:10;;;;;;;5.53;1.55;;;0.10;83.00;;;;;;4985715;28;20392;-79
2021/04/08 03:57:38;;;;;;;4.18;1.23;;;0.00;83.70;;;;;;4991078;28;20035;-79
2021/04/08 04:00:12;;;;;;;4.32;1.30;;;0.00;83.50;;;;;;4990794;28;20057;-79
2021/04/08 04:02:39;;;;;;;5.88;1.10;;;0.10;83.80;;;;;;4984259;28;20054;-79
2021/04/08 04:05:08;;;;;;;5.00;1.25;;;0.00;83.70;;;;;;4964813;28;20471;-79
2021/04/08 04:07:35;;;;;;;4.20;1.00;;;0.00;84.10;;;;;;4990191;28;20510;-79
2021/04/08 04:10:02;;;;;;;9.75;2.25;;;0.00;84.10;;;;;;4990875;28;20483;-79
2021/04/08 04:12:29;;;;;;;8.32;1.35;;;-0.10;84.70;;;;;;4990286;28;20057;-79
2021/04/08 04:14:57;;;;;;;7.30;1.23;;;-0.10;85.40;;;;;;4990378;28;20105;-79
2021/04/08 04:17:30;;;;;;;7.13;1.42;;;-0.20;85.90;;;;;;4990809;28;20414;-79
2021/04/08 04:19:57;;;;;;;6.13;1.02;;;-0.20;85.70;;;;;;4990598;28;20027;-79
2021/04/08 04:22:23;;;;;;;7.03;1.27;;;-0.20;85.90;;;;;;4989887;28;20065;-79
2021/04/08 04:24:49;;;;;;;3.92;0.98;;;-0.20;85.60;;;;;;4989911;28;20464;-79
2021/04/08 04:27:15;;;;;;;6.30;1.25;;;-0.30;86.00;;;;;;4986954;28;20546;-79
2021/04/08 04:29:41;;;;;;;3.40;1.13;;;-0.20;86.30;;;;;;4990500;28;20034;-79
2021/04/08 04:32:11;;;;;;;4.85;1.30;;;-0.20;86.20;;;;;;4990057;28;20725;-79
2021/04/08 04:34:40;;;;;;;6.28;1.67;;;-0.30;86.30;;;;;;4990269;28;20034;-79
2021/04/08 04:37:06;;;;;;;11.85;5.93;;;-0.30;86.50;;;;;;4989331;28;20042;-79
2021/04/08 04:39:32;;;;;;;14.75;4.47;;;-0.30;86.80;;;;;;4990231;28;20038;-79
2021/04/08 04:41:58;;;;;;;12.20;4.55;;;-0.30;87.20;;;;;;4989577;28;20052;-80
2021/04/08 04:44:24;;;;;;;13.20;6.15;;;-0.30;86.70;;;;;;4990658;28;20030;-79
2021/04/08 04:46:51;;;;;;;11.52;4.28;;;-0.30;86.40;;;;;;4988664;28;20034;-79
2021/04/08 04:49:17;;;;;;;7.32;2.67;;;-0.40;86.40;;;;;;4987165;28;20464;-79
2021/04/08 04:51:42;;;;;;;6.35;2.00;;;-0.30;87.00;;;;;;4989634;28;20077;-79
2021/04/08 04:54:08;;;;;;;7.00;1.95;;;-0.30;86.80;;;;;;4990486;28;20718;-79
2021/04/08 04:56:34;;;;;;;10.52;1.60;;;-0.40;87.30;;;;;;4987849;28;20046;-79
2021/04/08 04:58:59;;;;;;;10.65;1.60;;;-0.40;87.20;;;;;;4983162;28;20054;-79
2021/04/08 05:01:25;;;;;;;7.55;1.15;;;-0.40;86.50;;;;;;4987610;28;20106;-79
2021/04/08 05:03:51;;;;;;;8.88;2.10;;;-0.30;86.20;;;;;;4981795;28;20483;-78
2021/04/08 05:06:16;;;;;;;7.20;2.38;;;-0.30;87.00;;;;;;4989250;28;20030;-78
2021/04/08 05:08:42;;;;;;;11.05;1.90;;;-0.30;87.80;;;;;;4982702;28;20061;-79
2021/04/08 05:11:07;;;;;;;10.43;2.72;;;-0.40;88.00;;;;;;4990060;28;20392;-79
2021/04/08 05:13:33;;;;;;;7.03;2.10;;;-0.40;87.20;;;;;;4989848;28;20066;-78
2021/04/08 05:15:59;;;;;;;5.63;1.65;;;-0.40;87.70;;;;;;4989950;28;20113;-79
2021/04/08 05:18:24;;;;;;;9.73;2.60;;;-0.40;87.50;;;;;;4987842;28;20038;-79
2021/04/08 05:20:50;;;;;;;12.05;3.75;;;-0.40;88.00;;;;;;4989543;28;20085;-79
2021/04/08 05:23:16;;;;;;;8.90;2.90;;;-0.40;87.60;;;;;;4998073;28;20028;-79
2021/04/08 05:25:41;;;;;;;11.55;4.00;;;-0.40;86.40;;;;;;4983568;28;20810;-79
2021/04/08 05:28:07;;;;;;;10.80;3.40;;;-0.40;86.00;;;;;;4986077;28;20070;-79
2021/04/08 05:30:33;;;;;;;11.55;2.40;;;-0.30;85.50;;;;;;4990804;28;20041;-80
2021/04/08 05:32:58;;;;;;;5.63;1.98;;;-0.30;86.50;;;;;;4990253;28;20774;-80
2021/04/08 05:35:24;;;;;;;9.05;1.88;;;-0.30;86.70;;;;;;4976303;28;20540;-80
2021/04/08 05:37:50;;;;;;;11.75;2.17;;;-0.30;86.50;;;;;;4990263;28;20031;-80
2021/04/08 05:40:16;;;;;;;9.77;2.30;;;-0.30;86.70;;;;;;4989772;28;20109;-79
2021/04/08 05:42:45;;;;;;;10.75;2.30;;;-0.30;86.60;;;;;;4990228;28;20696;-80
2021/04/08 05:45:12;;;;;;;5.97;2.25;;;-0.30;86.70;;;;;;4995341;28;20590;-78
2021/04/08 05:47:38;;;;;;;6.38;1.90;;;-0.20;86.40;;;;;;4989705;28;20035;-79
2021/04/08 05:50:05;;;;;;;6.38;1.70;;;-0.20;86.60;;;;;;4988693;28;20034;-79
2021/04/08 05:52:30;;;;;;;13.48;4.72;;;-0.10;86.90;;;;;;4989994;28;20553;-80
2021/04/08 05:54:56;;;;;;;12.98;6.25;;;-0.10;86.90;;;;;;4986859;28;20035;-80
2021/04/08 05:57:22;;;;;;;15.90;5.20;;;-0.10;87.00;;;;;;4971873;28;20035;-79
2021/04/08 05:59:47;;;;;;;11.73;4.25;;;0.00;86.30;;;;;;4988736;28;20435;-79
2021/04/08 06:02:13;;;;;;;12.98;4.38;;;0.00;86.50;;;;;;4985814;28;20014;-79
2021/04/08 06:04:38;;;;;;;16.33;5.20;;;0.00;86.30;;;;;;4982519;28;20117;-79
2021/04/08 06:07:04;;;;;;;13.63;3.65;;;0.00;86.60;;;;;;4984688;28;20030;-79
2021/04/08 06:09:30;;;;;;;9.98;3.90;;;0.00;86.40;;;;;;4970545;28;20499;-78
2021/04/08 06:11:55;;;;;;;12.10;4.38;;;0.10;85.70;;;;;;4981703;28;20830;-78
2021/04/08 06:14:23;;;;;;;13.35;4.07;;;0.10;84.80;;;;;;4988521;28;20034;-79
2021/04/08 06:16:48;;;;;;;13.20;3.55;;;0.30;86.60;;;;;;4987091;28;20057;-80
2021/04/08 06:19:14;;;;;;;10.50;2.70;;;0.50;86.20;;;;;;4977942;28;20480;-79
2021/04/08 06:21:40;;;;;;;11.95;2.50;;;0.90;85.80;;;;;;4986701;28;20093;-78
2021/04/08 06:24:09;;;;;;;7.32;2.42;;;1.10;84.50;;;;;;4979166;28;20026;-79
2021/04/08 06:26:35;;;;;;;10.40;2.78;;;1.50;83.50;;;;;;4992955;28;20053;-79
2021/04/08 06:29:02;;;;;;;12.18;2.90;;;1.70;82.00;;;;;;4985586;28;20046;-79
2021/04/08 06:31:28;;;;;;;10.40;2.67;;;1.80;80.80;;;;;;4997573;28;20066;-79
2021/04/08 06:33:54;;;;;;;29.42;13.75;;;2.20;78.60;;;;;;4989955;28;20070;-79
2021/04/08 06:36:20;;;;;;;34.38;18.63;;;2.50;76.30;;;;;;4991757;28;20038;-79
2021/04/08 06:38:47;;;;;;;11.38;5.75;;;2.80;75.20;;;;;;4995058;28;20061;-78
2021/04/08 06:41:15;;;;;;;8.15;3.30;;;3.00;73.00;;;;;;4995940;28;20806;-79
2021/04/08 06:43:43;;;;;;;13.07;2.58;;;3.10;73.50;;;;;;5006302;28;20480;-78
2021/04/08 06:46:14;;;;;;;6.43;1.85;;;3.40;72.60;;;;;;4990900;28;20038;-79
2021/04/08 06:48:53;;;;;;;7.00;2.08;;;3.70;71.00;;;;;;4994092;28;20519;-78
2021/04/08 06:51:21;;;;;;;9.38;2.25;;;4.00;70.90;;;;;;4993815;28;20057;-78
2021/04/08 06:53:49;;;;;;;6.45;2.40;;;4.20;70.10;;;;;;4996544;28;20056;-79
2021/04/08 06:56:15;;;;;;;13.35;3.10;;;4.20;69.20;;;;;;4971129;28;20066;-79
2021/04/08 06:58:41;;;;;;;11.70;2.50;;;4.40;69.10;;;;;;4989336;28;20029;-78
2021/04/08 07:01:11;;;;;;;7.75;2.53;;;4.60;69.30;;;;;;4989954;28;20057;-78
2021/04/08 07:03:38;;;;;;;5.90;2.08;;;4.80;67.00;;;;;;4994636;28;20030;-79
2021/04/08 07:06:04;;;;;;;11.05;2.05;;;5.20;66.80;;;;;;4990884;28;20037;-79
2021/04/08 07:08:32;;;;;;;7.03;1.85;;;5.20;65.30;;;;;;4992628;28;20112;-78
2021/04/08 07:10:59;;;;;;;6.68;1.65;;;5.20;66.90;;;;;;4989742;28;20026;-79
2021/04/08 07:13:29;;;;;;;10.48;3.35;;;5.50;64.60;;;;;;4990870;28;20034;-78
2021/04/08 07:15:59;;;;;;;7.53;2.53;;;5.60;63.40;;;;;;4987245;28;20550;-78
2021/04/08 07:18:26;;;;;;;9.57;3.40;;;5.70;64.80;;;;;;4989794;28;20041;-79
2021/04/08 07:20:56;;;;;;;8.07;1.95;;;5.90;64.70;;;;;;4972560;28;20534;-78
2021/04/08 07:23:22;;;;;;;7.13;2.65;;;6.10;62.90;;;;;;4998751;28;20265;-79
2021/04/08 07:25:59;;;;;;;9.55;4.13;;;6.40;61.90;;;;;;4990487;28;20034;-78
2021/04/08 07:28:42;;;;;;;7.38;1.00;;;6.30;59.10;;;;;;4988102;28;20806;-79
2021/04/08 07:31:27;;;;;;;18.30;8.20;;;6.20;59.20;;;;;;4982019;28;20038;-78
2021/04/08 07:33:55;;;;;;;4.65;0.93;;;6.00;58.20;;;;;;4997016;28;20046;-79
2021/04/08 07:36:28;;;;;;;8.73;2.38;;;5.50;59.50;;;;;;4986879;28;20042;-78
2021/04/08 07:38:55;;;;;;;8.88;2.50;;;5.80;60.30;;;;;;4977862;28;20034;-78
2021/04/08 07:41:27;;;;;;;19.90;5.00;;;6.00;60.30;;;;;;4993211;28;20070;-78
2021/04/08 07:44:04;;;;;;;11.75;2.83;;;6.30;59.90;;;;;;4999829;28;20532;-78
2021/04/08 07:46:38;;;;;;;10.43;1.83;;;6.40;59.30;;;;;;4992153;28;20045;-78
2021/04/08 07:49:28;;;;;;;10.80;3.42;;;6.40;59.70;;;;;;4996250;28;20034;-78
2021/04/08 07:51:54;;;;;;;6.95;1.33;;;6.70;58.30;;;;;;4989060;28;20507;-79
2021/04/08 07:54:20;;;;;;;10.68;2.83;;;6.10;59.40;;;;;;4992444;28;20049;-78
2021/04/08 07:56:46;;;;;;;10.20;3.45;;;6.00;59.70;;;;;;4993354;28;20034;-78
2021/04/08 07:59:17;;;;;;;5.68;1.40;;;6.20;59.20;;;;;;4983277;28;20073;-79
2021/04/08 08:01:48;;;;;;;7.95;1.27;;;6.40;57.60;;;;;;5000138;28;20392;-78
2021/04/08 08:04:25;;;;;;;5.93;1.67;;;6.40;58.40;;;;;;4989380;28;20041;-78
2021/04/08 08:06:52;;;;;;;9.73;1.42;;;6.30;59.10;;;;;;4989629;28;20042;-79
2021/04/08 08:09:28;;;;;;;6.28;1.95;;;5.80;59.40;;;;;;4995170;28;20161;-78
2021/04/08 08:12:16;;;;;;;7.32;1.60;;;5.60;59.60;;;;;;4999493;28;20045;-78
2021/04/08 08:14:42;;;;;;;5.68;1.60;;;5.60;59.10;;;;;;4989018;28;20046;-78
2021/04/08 08:17:10;;;;;;;5.72;1.58;;;5.70;60.90;;;;;;4994607;28;20026;-79
2021/04/08 08:19:37;;;;;;;6.55;1.52;;;5.70;59.50;;;;;;4988178;28;20089;-79
2021/04/08 08:22:04;;;;;;;5.97;1.10;;;6.40;60.30;;;;;;4990714;28;20414;-78
2021/04/08 08:24:31;;;;;;;5.68;1.92;;;7.00;60.10;;;;;;4992857;28;20480;-78
2021/04/08 08:26:57;;;;;;;5.03;1.20;;;7.50;58.40;;;;;;4988794;28;20088;-79
2021/04/08 08:29:25;;;;;;;4.93;1.58;;;8.00;56.80;;;;;;4985731;28;20794;-79
2021/04/08 08:32:02;;;;;;;4.25;1.30;;;8.30;56.80;;;;;;4986869;28;20072;-79
2021/04/08 08:34:30;;;;;;;5.75;1.40;;;8.50;56.40;;;;;;4989878;28;20925;-79
2021/04/08 08:36:58;;;;;;;5.75;1.20;;;8.70;54.50;;;;;;4989706;28;20049;-79
2021/04/08 08:39:26;;;;;;;4.13;1.10;;;8.50;52.50;;;;;;4994724;28;20124;-79
2021/04/08 08:41:54;;;;;;;4.45;1.10;;;8.30;53.40;;;;;;4987442;28;20039;-79
2021/04/08 08:44:20;;;;;;;8.00;1.60;;;8.60;54.30;;;;;;4993420;28;20035;-79
2021/04/08 08:47:08;;;;;;;4.20;1.27;;;8.20;53.20;;;;;;4995046;28;20537;-79
2021/04/08 08:49:46;;;;;;;6.30;1.48;;;7.60;53.60;;;;;;4968780;28;20569;-79
2021/04/08 08:52:20;;;;;;;3.42;1.08;;;7.30;53.70;;;;;;4992916;28;20046;-79
2021/04/08 08:54:48;;;;;;;3.08;0.90;;;7.10;55.00;;;;;;4973960;28;20041;-78
2021/04/08 08:57:16;;;;;;;4.95;1.10;;;7.60;55.60;;;;;;4984728;28;20030;-79
2021/04/08 08:59:43;;;;;;;6.38;0.80;;;8.10;54.50;;;;;;4989407;28;20124;-80
2021/04/08 09:02:09;;;;;;;5.97;1.00;;;8.10;52.20;;;;;;4996694;28;20426;-79
2021/04/08 09:04:35;;;;;;;6.00;1.20;;;8.10;52.80;;;;;;4986930;28;20030;-80
2021/04/08 09:07:05;;;;;;;3.13;0.85;;;8.30;52.40;;;;;;4993150;28;20037;-78
2021/04/08 09:09:32;;;;;;;4.53;1.00;;;8.70;52.10;;;;;;4991276;28;20046;-79
2021/04/08 09:12:03;;;;;;;5.40;0.80;;;8.70;51.60;;;;;;4989572;28;20026;-79
2021/04/08 09:14:31;;;;;;;6.15;0.88;;;8.30;51.20;;;;;;4982559;28;20672;-79
2021/04/08 09:16:56;;;;;;;6.68;0.60;;;8.60;51.30;;;;;;4986676;28;20089;-79
2021/04/08 09:19:31;;;;;;;4.82;0.90;;;8.10;50.20;;;;;;4982619;28;20555;-79
2021/04/08 09:22:01;;;;;;;7.10;0.80;;;8.80;51.80;;;;;;4988587;28;20388;-79
2021/04/08 09:24:36;;;;;;;3.78;0.80;;;9.20;50.60;;;;;;4995633;28;20180;-79
2021/04/08 09:27:03;;;;;;;4.22;1.10;;;9.60;49.20;;;;;;4986770;28;20041;-79
2021/04/08 09:29:39;;;;;;;5.65;1.10;;;9.50;49.50;;;;;;4992481;28;20042;-79
2021/04/08 09:32:25;;;;;;;6.63;1.55;;;8.70;51.90;;;;;;4990053;28;20053;-79
2021/04/08 09:35:08;;;;;;;8.93;1.00;;;8.90;51.20;;;;;;4987483;28;20173;-80
2021/04/08 09:37:51;;;;;;;6.03;1.55;;;8.70;50.70;;;;;;4992100;28;20042;-79
2021/04/08 09:40:31;;;;;;;4.82;0.90;;;8.90;50.60;;;;;;4994910;28;20043;-79
2021/04/08 09:43:01;;;;;;;3.72;0.80;;;8.80;51.00;;;;;;4998686;28;20045;-79
2021/04/08 09:45:27;;;;;;;6.20;0.90;;;8.80;52.00;;;;;;4988369;28;20027;-79
2021/04/08 09:48:10;;;;;;;3.78;0.85;;;9.50;51.80;;;;;;4989753;28;20035;-79
2021/04/08 09:50:48;;;;;;;7.57;1.13;;;9.70;50.00;;;;;;4966953;28;20073;-79
2021/04/08 09:53:15;;;;;;;4.03;0.82;;;9.30;49.60;;;;;;4989314;28;20027;-79
2021/04/08 09:55:42;;;;;;;4.35;0.55;;;8.80;49.60;;;;;;4989822;28;20578;-79
2021/04/08 09:58:08;;;;;;;5.47;1.80;;;8.60;50.90;;;;;;4988752;28;20046;-79
2021/04/08 10:00:34;;;;;;;6.00;1.40;;;8.70;49.80;;;;;;4982645;28;20062;-80
2021/04/08 10:03:06;;;;;;;6.00;0.90;;;8.80;50.40;;;;;;4988624;28;21511;-79
2021/04/08 10:05:37;;;;;;;3.80;0.90;;;9.20;50.90;;;;;;4987406;28;20113;-79
2021/04/08 10:08:04;;;;;;;2.67;0.63;;;9.40;50.80;;;;;;4989435;28;20045;-78
2021/04/08 10:10:35;;;;;;;7.68;0.70;;;9.40;48.40;;;;;;4992752;28;20038;-79
2021/04/08 10:13:22;;;;;;;5.15;0.70;;;8.80;47.50;;;;;;4996331;28;20033;-80
2021/04/08 10:15:49;;;;;;;3.78;0.80;;;9.40;48.60;;;;;;4986751;28;20093;-81
2021/04/08 10:18:16;;;;;;;3.05;0.50;;;10.10;48.90;;;;;;4993741;28;20023;-80
2021/04/08 10:20:44;;;;;;;3.72;0.57;;;10.60;48.50;;;;;;4990842;28;20837;-80
2021/04/08 10:23:10;;;;;;;1.90;0.60;;;9.90;46.00;;;;;;4992025;28;20033;-80
2021/04/08 10:25:36;;;;;;;8.07;0.88;;;10.00;47.40;;;;;;4987253;28;20121;-79
2021/04/08 10:28:03;;;;;;;4.90;0.60;;;10.00;45.60;;;;;;4987457;28;20424;-80
2021/04/08 10:30:35;;;;;;;5.15;0.68;;;10.10;47.30;;;;;;4992184;28;20528;-80
2021/04/08 10:33:01;;;;;;;7.82;1.52;;;10.00;48.40;;;;;;4997532;28;20109;-80
2021/04/08 10:35:29;;;;;;;4.55;1.00;;;9.90;47.60;;;;;;4988717;28;20046;-79
2021/04/08 10:38:06;;;;;;;4.28;0.80;;;9.70;47.60;;;;;;4987305;28;20472;-80
2021/04/08 10:40:32;;;;;;;2.78;0.60;;;9.80;48.90;;;;;;4989987;28;20110;-80
2021/04/08 10:43:12;;;;;;;3.55;0.60;;;9.60;48.10;;;;;;4981304;28;20030;-80
2021/04/08 10:45:49;;;;;;;2.97;0.68;;;10.20;48.30;;;;;;4990630;28;20476;-80
2021/04/08 10:48:15;;;;;;;1.42;0.50;;;10.30;45.40;;;;;;4992501;28;20026;-79
2021/04/08 10:50:41;;;;;;;3.00;0.50;;;10.20;45.30;;;;;;5002199;28;20062;-80
2021/04/08 10:53:07;;;;;;;2.83;1.00;;;10.20;47.20;;;;;;4992531;28;20030;-80
2021/04/08 10:55:32;;;;;;;6.28;1.67;;;9.90;46.60;;;;;;5002381;28;20076;-81
2021/04/08 10:57:58;;;;;;;10.05;2.88;;;10.10;47.70;;;;;;4989818;28;20118;-81
2021/04/08 11:00:24;;;;;;;9.45;2.22;;;10.10;48.70;;;;;;4993143;28;20034;-81
2021/04/08 11:02:50;;;;;;;4.07;1.25;;;10.10;47.10;;;;;;4992606;28;20040;-80
2021/04/08 11:05:22;;;;;;;5.65;0.98;;;9.80;47.70;;;;;;4992229;28;20503;-81
2021/04/08 11:07:51;;;;;;;3.58;0.68;;;10.20;49.50;;;;;;4995415;28;20117;-80
2021/04/08 11:10:22;;;;;;;4.15;0.82;;;10.60;48.00;;;;;;4988938;28;20049;-80
2021/04/08 11:12:54;;;;;;;2.07;0.60;;;10.50;46.50;;;;;;4990983;28;20491;-80
2021/04/08 11:15:24;;;;;;;3.55;0.60;;;10.50;49.40;;;;;;4995533;28;20269;-80
2021/04/08 11:17:53;;;;;;;3.58;0.68;;;10.60;47.50;;;;;;4992068;28;20034;-80
2021/04/08 11:20:32;;;;;;;2.83;0.75;;;10.60;47.90;;;;;;4994062;28;20468;-80
2021/04/08 11:22:59;;;;;;;2.38;0.70;;;11.00;46.30;;;;;;4992520;28;20040;-80
2021/04/08 11:25:26;;;;;;;3.58;0.70;;;11.30;46.20;;;;;;4994914;28;20034;-80
2021/04/08 11:27:57;;;;;;;2.58;0.75;;;11.50;46.70;;;;;;4993984;28;20038;-80
2021/04/08 11:30:31;;;;;;;2.92;0.47;;;11.30;45.90;;;;;;4993561;28;20034;-80
2021/04/08 11:32:58;;;;;;;3.33;0.50;;;11.30;44.40;;;;;;4992717;28;20606;-80
2021/04/08 11:35:39;;;;;;;3.95;0.60;;;11.50;46.10;;;;;;4992211;28;20125;-80
2021/04/08 11:38:09;;;;;;;2.38;0.40;;;11.80;44.80;;;;;;4984323;28;20474;-78
2021/04/08 11:40:36;;;;;;;3.03;0.45;;;;;;;;;;4993657;28;20113;-80
2021/04/08 11:43:17;;;;;;;2.15;0.35;;;12.00;42.50;;;;;;4990368;28;20106;-79
2021/04/08 11:45:42;;;;;;;0.60;0.20;;;11.50;40.10;;;;;;4996611;28;20480;-80
2021/04/08 11:48:08;;;;;;;1.30;0.30;;;11.70;37.60;;;;;;4991829;28;20034;-79
2021/04/08 11:50:42;;;;;;;0.80;0.20;;;11.70;39.20;;;;;;4987347;28;20113;-80
2021/04/08 11:53:10;;;;;;;2.75;0.45;;;11.80;40.50;;;;;;4994468;28;20033;-80
2021/04/08 11:55:37;;;;;;;2.90;0.55;;;12.00;39.40;;;;;;4997268;28;20035;-80
2021/04/08 11:58:03;;;;;;;4.65;0.50;;;12.30;41.70;;;;;;4996715;28;20396;-80
2021/04/08 12:00:30;;;;;;;2.40;0.50;;;12.60;42.80;;;;;;4995174;28;20034;-81
2021/04/08 12:02:56;;;;;;;1.95;0.45;;;12.60;43.20;;;;;;4991586;28;20026;-81
2021/04/08 12:05:22;;;;;;;2.65;0.57;;;12.60;42.20;;;;;;4989024;28;20046;-81
2021/04/08 12:07:49;;;;;;;2.15;0.50;;;12.30;40.40;;;;;;4983443;28;20543;-80
2021/04/08 12:10:23;;;;;;;1.85;0.40;;;11.90;39.30;;;;;;4996309;28;20030;-80
2021/04/08 12:12:53;;;;;;;4.55;0.50;;;12.30;42.40;;;;;;4996026;28;20841;-79
2021/04/08 12:15:34;;;;;;;3.03;0.60;;;12.60;43.20;;;;;;4990450;28;20030;-79
2021/04/08 12:18:01;;;;;;;1.65;0.40;;;12.90;42.20;;;;;;4994331;28;20037;-81
2021/04/08 12:20:27;;;;;;;2.28;0.50;;;13.10;40.60;;;;;;4994275;28;20117;-80
2021/04/08 12:22:54;;;;;;;1.85;0.50;;;;;;;;;;4992982;28;20046;-80
2021/04/08 12:25:21;;;;;;;6.70;1.13;;;13.40;40.00;;;;;;4987779;28;20542;-79
2021/04/08 12:27:57;;;;;;;3.17;0.60;;;13.40;40.60;;;;;;4998888;28;20062;-79
2021/04/08 12:30:23;;;;;;;3.28;0.50;;;13.00;38.50;;;;;;4992120;28;20038;-78
2021/04/08 12:32:51;;;;;;;2.30;0.40;;;12.70;38.50;;;;;;4988342;28;20047;-78
2021/04/08 12:35:16;;;;;;;3.67;0.60;;;12.80;38.90;;;;;;4993450;28;20014;-79
2021/04/08 12:37:42;;;;;;;2.25;0.55;;;13.20;40.10;;;;;;4992230;28;20053;-79
2021/04/08 12:40:08;;;;;;;4.03;0.55;;;13.30;39.10;;;;;;4991763;28;20014;-79
2021/04/08 12:42:34;;;;;;;2.05;0.40;;;13.30;37.50;;;;;;4991068;28;20042;-79
2021/04/08 12:45:00;;;;;;;1.80;0.35;;;13.20;38.30;;;;;;4971556;28;20105;-80
2021/04/08 12:47:26;;;;;;;1.75;0.30;;;13.30;37.90;;;;;;4983616;28;20673;-81
2021/04/08 12:49:52;;;;;;;2.88;0.35;;;13.10;36.80;;;;;;4995234;28;20483;-80
2021/04/08 12:52:18;;;;;;;2.13;0.60;;;13.00;36.30;;;;;;4970696;28;20030;-80
2021/04/08 12:54:43;;;;;;;4.00;0.85;;;13.20;38.70;;;;;;4971439;28;20073;-81
2021/04/08 12:57:09;;;;;;;3.90;0.70;;;13.40;41.90;;;;;;4995558;28;20046;-80
2021/04/08 12:59:35;;;;;;;2.95;0.60;;;13.60;42.10;;;;;;4987168;28;20749;-80
2021/04/08 13:02:01;;;;;;;3.20;0.80;;;13.50;41.60;;;;;;4992732;28;20041;-80